sensor_id;sensor_type;location;lat;lon;timestamp;P1;durP1;ratioP1;P2;durP2;ratioP2
15958;SDS011;8078;47.822;9.402;2023-06-26T00:00:39;8.43;;;6.47;;
15958;SDS011;8078;47.822;9.402;2023-06-26T00:03:05;7.90;;;7.05;;
15958;SDS011;8078;47.822;9.402;2023-06-26T00:05:30;9.10;;;7.10;;
15958;SDS011;8078;47.822;9.402;2023-06-26T00:07:56;9.57;;;7.03;;
15958;SDS011;8078;47.822;9.402;2023-06-26T00:10:25;9.57;;;7.35;;
15958;SDS011;8078;47.822;9.402;2023-06-26T00:12:54;9.60;;;7.53;;
15958;SDS011;8078;47.822;9.402;2023-06-26T00:15:19;13.27;;;6.88;;
15958;SDS011;8078;47.822;9.402;2023-06-26T00:17:45;8.65;;;6.70;;
15958;SDS011;8078;47.822;9.402;2023-06-26T00:20:10;9.15;;;7.18;;
15958;SDS011;8078;47.822;9.402;2023-06-26T00:22:36;9.73;;;7.15;;
15958;SDS011;8078;47.822;9.402;2023-06-26T00:25:05;11.23;;;7.40;;
15958;SDS011;8078;47.822;9.402;2023-06-26T00:27:31;13.45;;;6.97;;
15958;SDS011;8078;47.822;9.402;2023-06-26T00:29:57;10.93;;;7.30;;
15958;SDS011;8078;47.822;9.402;2023-06-26T00:32:22;9.48;;;7.10;;
15958;SDS011;8078;47.822;9.402;2023-06-26T00:34:48;11.40;;;7.40;;
15958;SDS011;8078;47.822;9.402;2023-06-26T00:37:13;9.98;;;7.13;;
15958;SDS011;8078;47.822;9.402;2023-06-26T00:39:39;11.27;;;7.53;;
15958;SDS011;8078;47.822;9.402;2023-06-26T00:42:05;9.00;;;7.03;;
15958;SDS011;8078;47.822;9.402;2023-06-26T00:44:31;9.43;;;6.85;;
15958;SDS011;8078;47.822;9.402;2023-06-26T00:46:57;10.02;;;7.30;;
15958;SDS011;8078;47.822;9.402;2023-06-26T00:49:22;9.25;;;7.30;;
15958;SDS011;8078;47.822;9.402;2023-06-26T00:51:48;9.93;;;7.47;;
15958;SDS011;8078;47.822;9.402;2023-06-26T00:54:14;10.10;;;7.18;;
15958;SDS011;8078;47.822;9.402;2023-06-26T00:56:45;9.43;;;7.30;;
15958;SDS011;8078;47.822;9.402;2023-06-26T00:59:11;9.18;;;7.38;;
15958;SDS011;8078;47.822;9.402;2023-06-26T01:01:37;8.90;;;7.40;;
15958;SDS011;8078;47.822;9.402;2023-06-26T01:04:03;10.10;;;7.70;;
15958;SDS011;8078;47.822;9.402;2023-06-26T01:06:28;8.80;;;7.47;;
15958;SDS011;8078;47.822;9.402;2023-06-26T01:08:57;9.80;;;7.10;;
15958;SDS011;8078;47.822;9.402;2023-06-26T01:11:23;9.80;;;7.20;;
15958;SDS011;8078;47.822;9.402;2023-06-26T01:13:48;10.13;;;7.13;;
15958;SDS011;8078;47.822;9.402;2023-06-26T01:16:15;9.43;;;7.18;;
15958;SDS011;8078;47.822;9.402;2023-06-26T01:18:44;10.20;;;7.72;;
15958;SDS011;8078;47.822;9.402;2023-06-26T01:21:10;9.02;;;7.43;;
15958;SDS011;8078;47.822;9.402;2023-06-26T01:23:39;10.38;;;7.45;;
15958;SDS011;8078;47.822;9.402;2023-06-26T01:26:29;9.85;;;6.68;;
15958;SDS011;8078;47.822;9.402;2023-06-26T01:29:00;9.40;;;6.70;;
15958;SDS011;8078;47.822;9.402;2023-06-26T01:31:27;11.48;;;7.53;;
15958;SDS011;8078;47.822;9.402;2023-06-26T01:33:55;9.18;;;7.40;;
15958;SDS011;8078;47.822;9.402;2023-06-26T01:36:25;8.48;;;7.07;;
15958;SDS011;8078;47.822;9.402;2023-06-26T01:38:52;9.00;;;6.72;;
15958;SDS011;8078;47.822;9.402;2023-06-26T01:41:18;8.50;;;7.07;;
15958;SDS011;8078;47.822;9.402;2023-06-26T01:49:12;10.52;;;7.25;;
15958;SDS011;8078;47.822;9.402;2023-06-26T01:57:33;10.25;;;7.30;;
15958;SDS011;8078;47.822;9.402;2023-06-26T02:00:01;10.00;;;7.82;;
15958;SDS011;8078;47.822;9.402;2023-06-26T02:02:30;9.68;;;7.20;;
15958;SDS011;8078;47.822;9.402;2023-06-26T02:04:56;11.18;;;7.63;;
15958;SDS011;8078;47.822;9.402;2023-06-26T02:07:22;10.75;;;8.00;;
15958;SDS011;8078;47.822;9.402;2023-06-26T02:09:47;11.02;;;7.57;;
15958;SDS011;8078;47.822;9.402;2023-06-26T02:12:13;11.00;;;8.20;;
15958;SDS011;8078;47.822;9.402;2023-06-26T02:14:38;9.27;;;7.32;;
15958;SDS011;8078;47.822;9.402;2023-06-26T02:17:04;9.95;;;7.22;;
15958;SDS011;8078;47.822;9.402;2023-06-26T02:19:30;9.27;;;7.20;;
15958;SDS011;8078;47.822;9.402;2023-06-26T02:21:55;13.98;;;7.65;;
15958;SDS011;8078;47.822;9.402;2023-06-26T02:24:21;11.73;;;7.57;;
15958;SDS011;8078;47.822;9.402;2023-06-26T02:26:46;10.50;;;7.53;;
15958;SDS011;8078;47.822;9.402;2023-06-26T02:29:14;8.70;;;6.78;;
15958;SDS011;8078;47.822;9.402;2023-06-26T02:31:39;10.40;;;7.30;;
15958;SDS011;8078;47.822;9.402;2023-06-26T02:34:06;9.85;;;7.53;;
15958;SDS011;8078;47.822;9.402;2023-06-26T02:36:32;8.43;;;6.53;;
15958;SDS011;8078;47.822;9.402;2023-06-26T02:38:57;10.40;;;6.88;;
15958;SDS011;8078;47.822;9.402;2023-06-26T02:41:23;7.68;;;6.60;;
15958;SDS011;8078;47.822;9.402;2023-06-26T02:43:48;10.32;;;6.82;;
15958;SDS011;8078;47.822;9.402;2023-06-26T02:46:14;9.43;;;6.80;;
15958;SDS011;8078;47.822;9.402;2023-06-26T02:48:40;8.45;;;6.60;;
15958;SDS011;8078;47.822;9.402;2023-06-26T02:51:05;9.95;;;6.68;;
15958;SDS011;8078;47.822;9.402;2023-06-26T02:53:32;8.57;;;6.63;;
15958;SDS011;8078;47.822;9.402;2023-06-26T02:55:57;8.07;;;6.63;;
15958;SDS011;8078;47.822;9.402;2023-06-26T02:58:23;8.73;;;6.03;;
15958;SDS011;8078;47.822;9.402;2023-06-26T03:00:48;9.38;;;6.72;;
15958;SDS011;8078;47.822;9.402;2023-06-26T03:03:14;8.25;;;6.47;;
15958;SDS011;8078;47.822;9.402;2023-06-26T03:05:39;11.60;;;6.75;;
15958;SDS011;8078;47.822;9.402;2023-06-26T03:08:05;7.90;;;6.45;;
15958;SDS011;8078;47.822;9.402;2023-06-26T03:10:31;8.80;;;6.53;;
15958;SDS011;8078;47.822;9.402;2023-06-26T03:12:56;9.38;;;6.65;;
15958;SDS011;8078;47.822;9.402;2023-06-26T03:15:22;8.07;;;6.45;;
15958;SDS011;8078;47.822;9.402;2023-06-26T03:17:47;9.48;;;6.60;;
15958;SDS011;8078;47.822;9.402;2023-06-26T03:20:13;8.75;;;6.68;;
15958;SDS011;8078;47.822;9.402;2023-06-26T03:22:40;8.32;;;6.95;;
15958;SDS011;8078;47.822;9.402;2023-06-26T03:25:06;7.88;;;5.85;;
15958;SDS011;8078;47.822;9.402;2023-06-26T03:27:31;9.25;;;7.00;;
15958;SDS011;8078;47.822;9.402;2023-06-26T03:29:57;7.72;;;6.32;;
15958;SDS011;8078;47.822;9.402;2023-06-26T03:32:22;8.38;;;6.80;;
15958;SDS011;8078;47.822;9.402;2023-06-26T03:34:48;11.25;;;6.93;;
15958;SDS011;8078;47.822;9.402;2023-06-26T03:37:14;9.35;;;6.97;;
15958;SDS011;8078;47.822;9.402;2023-06-26T03:39:39;12.73;;;7.10;;
15958;SDS011;8078;47.822;9.402;2023-06-26T03:42:05;8.32;;;6.40;;
15958;SDS011;8078;47.822;9.402;2023-06-26T03:44:32;7.63;;;6.55;;
15958;SDS011;8078;47.822;9.402;2023-06-26T03:46:57;8.98;;;7.22;;
15958;SDS011;8078;47.822;9.402;2023-06-26T03:49:23;10.85;;;7.03;;
15958;SDS011;8078;47.822;9.402;2023-06-26T03:51:48;8.90;;;6.85;;
15958;SDS011;8078;47.822;9.402;2023-06-26T03:54:14;9.32;;;6.57;;
15958;SDS011;8078;47.822;9.402;2023-06-26T03:56:40;9.68;;;7.28;;
15958;SDS011;8078;47.822;9.402;2023-06-26T03:59:05;8.93;;;7.30;;
15958;SDS011;8078;47.822;9.402;2023-06-26T04:01:31;8.55;;;7.40;;
15958;SDS011;8078;47.822;9.402;2023-06-26T04:03:56;8.95;;;7.35;;
15958;SDS011;8078;47.822;9.402;2023-06-26T04:06:22;10.50;;;7.70;;
15958;SDS011;8078;47.822;9.402;2023-06-26T04:08:47;12.43;;;7.82;;
15958;SDS011;8078;47.822;9.402;2023-06-26T04:11:13;9.40;;;7.72;;
15958;SDS011;8078;47.822;9.402;2023-06-26T04:13:38;8.80;;;7.00;;
15958;SDS011;8078;47.822;9.402;2023-06-26T04:16:04;9.98;;;7.22;;
15958;SDS011;8078;47.822;9.402;2023-06-26T04:18:31;10.02;;;7.70;;
15958;SDS011;8078;47.822;9.402;2023-06-26T04:21:03;8.05;;;6.80;;
15958;SDS011;8078;47.822;9.402;2023-06-26T04:23:33;9.63;;;7.25;;
15958;SDS011;8078;47.822;9.402;2023-06-26T04:25:59;8.90;;;6.65;;
15958;SDS011;8078;47.822;9.402;2023-06-26T04:28:25;11.00;;;7.40;;
15958;SDS011;8078;47.822;9.402;2023-06-26T04:30:51;9.25;;;6.80;;
15958;SDS011;8078;47.822;9.402;2023-06-26T04:33:18;8.80;;;6.32;;
15958;SDS011;8078;47.822;9.402;2023-06-26T04:35:44;9.27;;;7.55;;
15958;SDS011;8078;47.822;9.402;2023-06-26T04:38:10;9.43;;;7.03;;
15958;SDS011;8078;47.822;9.402;2023-06-26T04:40:36;8.82;;;7.28;;
15958;SDS011;8078;47.822;9.402;2023-06-26T04:43:01;8.40;;;6.90;;
15958;SDS011;8078;47.822;9.402;2023-06-26T04:45:27;9.73;;;6.55;;
15958;SDS011;8078;47.822;9.402;2023-06-26T04:47:52;8.68;;;7.10;;
15958;SDS011;8078;47.822;9.402;2023-06-26T04:50:18;8.77;;;6.60;;
15958;SDS011;8078;47.822;9.402;2023-06-26T04:52:44;7.82;;;6.65;;
15958;SDS011;8078;47.822;9.402;2023-06-26T04:55:09;12.43;;;7.03;;
15958;SDS011;8078;47.822;9.402;2023-06-26T04:57:35;8.35;;;6.97;;
15958;SDS011;8078;47.822;9.402;2023-06-26T05:00:01;8.95;;;7.35;;
15958;SDS011;8078;47.822;9.402;2023-06-26T05:02:27;10.63;;;7.43;;
15958;SDS011;8078;47.822;9.402;2023-06-26T05:04:53;8.32;;;6.43;;
15958;SDS011;8078;47.822;9.402;2023-06-26T05:07:19;9.73;;;7.07;;
15958;SDS011;8078;47.822;9.402;2023-06-26T05:09:45;9.43;;;7.13;;
15958;SDS011;8078;47.822;9.402;2023-06-26T05:12:10;7.70;;;6.82;;
15958;SDS011;8078;47.822;9.402;2023-06-26T05:14:37;10.98;;;6.47;;
15958;SDS011;8078;47.822;9.402;2023-06-26T05:17:03;8.57;;;6.82;;
15958;SDS011;8078;47.822;9.402;2023-06-26T05:19:29;8.60;;;6.75;;
15958;SDS011;8078;47.822;9.402;2023-06-26T05:21:54;10.98;;;7.18;;
15958;SDS011;8078;47.822;9.402;2023-06-26T05:24:20;8.10;;;6.85;;
15958;SDS011;8078;47.822;9.402;2023-06-26T05:26:47;8.95;;;6.88;;
15958;SDS011;8078;47.822;9.402;2023-06-26T05:29:13;7.95;;;6.60;;
15958;SDS011;8078;47.822;9.402;2023-06-26T05:31:40;8.32;;;6.72;;
15958;SDS011;8078;47.822;9.402;2023-06-26T05:34:06;8.70;;;6.40;;
15958;SDS011;8078;47.822;9.402;2023-06-26T05:36:33;9.85;;;7.43;;
15958;SDS011;8078;47.822;9.402;2023-06-26T05:39:00;10.40;;;7.20;;
15958;SDS011;8078;47.822;9.402;2023-06-26T05:41:27;9.75;;;6.78;;
15958;SDS011;8078;47.822;9.402;2023-06-26T05:43:53;12.02;;;7.95;;
15958;SDS011;8078;47.822;9.402;2023-06-26T05:46:19;13.18;;;7.85;;
15958;SDS011;8078;47.822;9.402;2023-06-26T05:48:45;7.85;;;7.00;;
15958;SDS011;8078;47.822;9.402;2023-06-26T05:51:10;8.85;;;7.78;;
15958;SDS011;8078;47.822;9.402;2023-06-26T05:53:36;9.15;;;7.88;;
15958;SDS011;8078;47.822;9.402;2023-06-26T05:56:02;8.77;;;7.68;;
15958;SDS011;8078;47.822;9.402;2023-06-26T05:58:28;10.38;;;8.02;;
15958;SDS011;8078;47.822;9.402;2023-06-26T06:00:54;8.90;;;7.47;;
15958;SDS011;8078;47.822;9.402;2023-06-26T06:03:20;9.15;;;7.50;;
15958;SDS011;8078;47.822;9.402;2023-06-26T06:05:46;8.13;;;7.20;;
15958;SDS011;8078;47.822;9.402;2023-06-26T06:08:11;10.15;;;7.78;;
15958;SDS011;8078;47.822;9.402;2023-06-26T06:10:37;10.95;;;7.68;;
15958;SDS011;8078;47.822;9.402;2023-06-26T06:13:03;10.52;;;8.10;;
15958;SDS011;8078;47.822;9.402;2023-06-26T06:15:28;9.10;;;7.30;;
15958;SDS011;8078;47.822;9.402;2023-06-26T06:17:54;10.63;;;8.00;;
15958;SDS011;8078;47.822;9.402;2023-06-26T06:20:19;9.15;;;7.50;;
15958;SDS011;8078;47.822;9.402;2023-06-26T06:22:45;9.30;;;7.50;;
15958;SDS011;8078;47.822;9.402;2023-06-26T06:25:11;10.13;;;7.50;;
15958;SDS011;8078;47.822;9.402;2023-06-26T06:27:36;8.25;;;7.25;;
15958;SDS011;8078;47.822;9.402;2023-06-26T06:30:02;10.20;;;7.00;;
15958;SDS011;8078;47.822;9.402;2023-06-26T06:32:28;7.82;;;6.72;;
15958;SDS011;8078;47.822;9.402;2023-06-26T06:34:53;9.60;;;7.60;;
15958;SDS011;8078;47.822;9.402;2023-06-26T06:37:19;9.23;;;7.40;;
15958;SDS011;8078;47.822;9.402;2023-06-26T06:39:45;8.68;;;7.13;;
15958;SDS011;8078;47.822;9.402;2023-06-26T06:42:10;8.43;;;7.40;;
15958;SDS011;8078;47.822;9.402;2023-06-26T06:44:36;8.88;;;7.45;;
15958;SDS011;8078;47.822;9.402;2023-06-26T06:47:01;9.25;;;7.50;;
15958;SDS011;8078;47.822;9.402;2023-06-26T06:49:27;8.75;;;7.22;;
15958;SDS011;8078;47.822;9.402;2023-06-26T06:51:52;8.40;;;7.32;;
15958;SDS011;8078;47.822;9.402;2023-06-26T06:54:18;8.23;;;7.35;;
15958;SDS011;8078;47.822;9.402;2023-06-26T06:56:44;11.32;;;7.03;;
15958;SDS011;8078;47.822;9.402;2023-06-26T06:59:10;8.38;;;6.97;;
15958;SDS011;8078;47.822;9.402;2023-06-26T07:01:35;9.32;;;7.28;;
15958;SDS011;8078;47.822;9.402;2023-06-26T07:04:01;7.90;;;7.10;;
15958;SDS011;8078;47.822;9.402;2023-06-26T07:06:28;8.77;;;7.40;;
15958;SDS011;8078;47.822;9.402;2023-06-26T07:08:54;8.90;;;7.53;;
15958;SDS011;8078;47.822;9.402;2023-06-26T07:11:20;8.75;;;7.30;;
15958;SDS011;8078;47.822;9.402;2023-06-26T07:13:45;11.68;;;7.03;;
15958;SDS011;8078;47.822;9.402;2023-06-26T07:16:11;10.02;;;7.82;;
15958;SDS011;8078;47.822;9.402;2023-06-26T07:18:37;10.05;;;7.55;;
15958;SDS011;8078;47.822;9.402;2023-06-26T07:21:03;8.50;;;7.30;;
15958;SDS011;8078;47.822;9.402;2023-06-26T07:23:29;8.90;;;7.30;;
15958;SDS011;8078;47.822;9.402;2023-06-26T07:25:55;9.32;;;7.57;;
15958;SDS011;8078;47.822;9.402;2023-06-26T07:28:20;9.05;;;7.80;;
15958;SDS011;8078;47.822;9.402;2023-06-26T07:30:46;8.65;;;7.50;;
15958;SDS011;8078;47.822;9.402;2023-06-26T07:33:12;9.25;;;6.97;;
15958;SDS011;8078;47.822;9.402;2023-06-26T07:35:37;8.40;;;7.13;;
15958;SDS011;8078;47.822;9.402;2023-06-26T07:38:03;8.75;;;7.38;;
15958;SDS011;8078;47.822;9.402;2023-06-26T07:40:29;10.00;;;7.68;;
15958;SDS011;8078;47.822;9.402;2023-06-26T07:42:54;10.38;;;8.18;;
15958;SDS011;8078;47.822;9.402;2023-06-26T07:45:20;10.25;;;7.95;;
15958;SDS011;8078;47.822;9.402;2023-06-26T07:47:45;10.10;;;7.35;;
15958;SDS011;8078;47.822;9.402;2023-06-26T07:50:11;8.60;;;7.50;;
15958;SDS011;8078;47.822;9.402;2023-06-26T07:52:37;10.25;;;7.35;;
15958;SDS011;8078;47.822;9.402;2023-06-26T07:55:02;8.27;;;7.38;;
15958;SDS011;8078;47.822;9.402;2023-06-26T07:57:29;9.15;;;7.60;;
15958;SDS011;8078;47.822;9.402;2023-06-26T07:59:54;10.13;;;8.05;;
15958;SDS011;8078;47.822;9.402;2023-06-26T08:02:20;9.88;;;7.45;;
15958;SDS011;8078;47.822;9.402;2023-06-26T08:04:46;8.60;;;7.50;;
15958;SDS011;8078;47.822;9.402;2023-06-26T08:07:12;8.50;;;7.53;;
15958;SDS011;8078;47.822;9.402;2023-06-26T08:09:39;9.80;;;7.50;;
15958;SDS011;8078;47.822;9.402;2023-06-26T08:12:04;8.93;;;7.90;;
15958;SDS011;8078;47.822;9.402;2023-06-26T08:14:30;9.48;;;8.07;;
15958;SDS011;8078;47.822;9.402;2023-06-26T08:16:56;11.55;;;8.02;;
15958;SDS011;8078;47.822;9.402;2023-06-26T08:19:24;10.32;;;8.25;;
15958;SDS011;8078;47.822;9.402;2023-06-26T08:21:50;9.50;;;8.35;;
15958;SDS011;8078;47.822;9.402;2023-06-26T08:24:16;13.35;;;7.80;;
15958;SDS011;8078;47.822;9.402;2023-06-26T08:26:44;10.15;;;7.90;;
15958;SDS011;8078;47.822;9.402;2023-06-26T08:29:11;9.63;;;7.70;;
15958;SDS011;8078;47.822;9.402;2023-06-26T08:31:39;9.18;;;7.60;;
15958;SDS011;8078;47.822;9.402;2023-06-26T08:34:05;11.95;;;7.72;;
15958;SDS011;8078;47.822;9.402;2023-06-26T08:36:31;8.43;;;7.07;;
15958;SDS011;8078;47.822;9.402;2023-06-26T08:38:57;10.15;;;7.60;;
15958;SDS011;8078;47.822;9.402;2023-06-26T08:41:24;11.80;;;7.88;;
15958;SDS011;8078;47.822;9.402;2023-06-26T08:43:50;11.70;;;7.90;;
15958;SDS011;8078;47.822;9.402;2023-06-26T08:46:19;11.40;;;7.43;;
15958;SDS011;8078;47.822;9.402;2023-06-26T08:49:00;9.43;;;7.55;;
15958;SDS011;8078;47.822;9.402;2023-06-26T08:51:37;9.43;;;7.35;;
15958;SDS011;8078;47.822;9.402;2023-06-26T08:54:07;11.32;;;7.75;;
15958;SDS011;8078;47.822;9.402;2023-06-26T08:56:37;9.70;;;7.43;;
15958;SDS011;8078;47.822;9.402;2023-06-26T08:59:07;8.25;;;7.32;;
15958;SDS011;8078;47.822;9.402;2023-06-26T09:01:35;8.73;;;7.20;;
15958;SDS011;8078;47.822;9.402;2023-06-26T09:04:02;10.68;;;8.00;;
15958;SDS011;8078;47.822;9.402;2023-06-26T09:06:27;10.30;;;7.53;;
15958;SDS011;8078;47.822;9.402;2023-06-26T09:08:53;9.48;;;8.20;;
15958;SDS011;8078;47.822;9.402;2023-06-26T09:11:19;11.15;;;7.72;;
15958;SDS011;8078;47.822;9.402;2023-06-26T09:13:44;9.63;;;7.28;;
15958;SDS011;8078;47.822;9.402;2023-06-26T09:16:12;8.40;;;7.20;;
15958;SDS011;8078;47.822;9.402;2023-06-26T09:18:38;8.38;;;7.05;;
15958;SDS011;8078;47.822;9.402;2023-06-26T09:21:06;14.00;;;7.57;;
15958;SDS011;8078;47.822;9.402;2023-06-26T09:23:33;8.93;;;7.30;;
15958;SDS011;8078;47.822;9.402;2023-06-26T09:25:59;8.77;;;7.88;;
15958;SDS011;8078;47.822;9.402;2023-06-26T09:28:31;8.98;;;7.93;;
15958;SDS011;8078;47.822;9.402;2023-06-26T09:31:05;8.98;;;7.53;;
15958;SDS011;8078;47.822;9.402;2023-06-26T09:33:36;8.77;;;7.47;;
15958;SDS011;8078;47.822;9.402;2023-06-26T09:36:18;11.30;;;7.88;;
15958;SDS011;8078;47.822;9.402;2023-06-26T09:38:45;9.27;;;8.07;;
15958;SDS011;8078;47.822;9.402;2023-06-26T09:41:10;9.60;;;7.32;;
15958;SDS011;8078;47.822;9.402;2023-06-26T09:43:45;13.85;;;7.80;;
15958;SDS011;8078;47.822;9.402;2023-06-26T09:46:24;8.55;;;7.30;;
15958;SDS011;8078;47.822;9.402;2023-06-26T09:48:58;11.23;;;7.70;;
15958;SDS011;8078;47.822;9.402;2023-06-26T09:51:29;9.70;;;7.82;;
15958;SDS011;8078;47.822;9.402;2023-06-26T09:53:56;7.97;;;7.18;;
15958;SDS011;8078;47.822;9.402;2023-06-26T09:56:22;10.35;;;7.85;;
15958;SDS011;8078;47.822;9.402;2023-06-26T09:58:49;8.82;;;7.65;;
15958;SDS011;8078;47.822;9.402;2023-06-26T10:01:14;8.82;;;7.80;;
15958;SDS011;8078;47.822;9.402;2023-06-26T10:03:40;8.73;;;7.50;;
15958;SDS011;8078;47.822;9.402;2023-06-26T10:06:05;10.82;;;8.20;;
15958;SDS011;8078;47.822;9.402;2023-06-26T10:08:34;10.98;;;7.85;;
15958;SDS011;8078;47.822;9.402;2023-06-26T10:11:04;8.73;;;7.15;;
15958;SDS011;8078;47.822;9.402;2023-06-26T10:13:33;8.13;;;7.25;;
15958;SDS011;8078;47.822;9.402;2023-06-26T10:16:03;9.32;;;7.30;;
15958;SDS011;8078;47.822;9.402;2023-06-26T10:18:31;10.18;;;7.53;;
15958;SDS011;8078;47.822;9.402;2023-06-26T10:20:58;9.82;;;7.55;;
15958;SDS011;8078;47.822;9.402;2023-06-26T10:23:26;8.20;;;7.40;;
15958;SDS011;8078;47.822;9.402;2023-06-26T10:25:54;9.32;;;7.80;;
15958;SDS011;8078;47.822;9.402;2023-06-26T10:28:22;8.25;;;7.35;;
15958;SDS011;8078;47.822;9.402;2023-06-26T10:30:48;10.88;;;7.32;;
15958;SDS011;8078;47.822;9.402;2023-06-26T10:33:16;8.52;;;7.38;;
15958;SDS011;8078;47.822;9.402;2023-06-26T10:35:44;12.45;;;7.68;;
15958;SDS011;8078;47.822;9.402;2023-06-26T10:38:10;9.68;;;7.72;;
15958;SDS011;8078;47.822;9.402;2023-06-26T10:40:54;8.70;;;7.20;;
15958;SDS011;8078;47.822;9.402;2023-06-26T10:43:20;8.35;;;7.43;;
15958;SDS011;8078;47.822;9.402;2023-06-26T10:45:55;9.10;;;7.43;;
15958;SDS011;8078;47.822;9.402;2023-06-26T10:48:21;8.25;;;7.40;;
15958;SDS011;8078;47.822;9.402;2023-06-26T10:50:47;7.70;;;6.90;;
15958;SDS011;8078;47.822;9.402;2023-06-26T10:55:50;6.90;;;6.15;;
15958;SDS011;8078;47.822;9.402;2023-06-26T11:03:39;7.80;;;5.75;;
15958;SDS011;8078;47.822;9.402;2023-06-26T11:06:12;10.57;;;6.38;;
15958;SDS011;8078;47.822;9.402;2023-06-26T11:14:21;7.05;;;6.35;;
15958;SDS011;8078;47.822;9.402;2023-06-26T11:16:48;7.38;;;6.35;;
15958;SDS011;8078;47.822;9.402;2023-06-26T11:19:14;10.05;;;7.15;;
15958;SDS011;8078;47.822;9.402;2023-06-26T11:21:44;8.30;;;6.75;;
15958;SDS011;8078;47.822;9.402;2023-06-26T11:24:10;13.20;;;7.15;;
15958;SDS011;8078;47.822;9.402;2023-06-26T11:26:37;8.45;;;6.40;;
15958;SDS011;8078;47.822;9.402;2023-06-26T11:29:04;9.23;;;6.28;;
15958;SDS011;8078;47.822;9.402;2023-06-26T11:31:30;7.65;;;6.85;;
15958;SDS011;8078;47.822;9.402;2023-06-26T11:34:02;7.47;;;6.35;;
15958;SDS011;8078;47.822;9.402;2023-06-26T11:36:29;7.20;;;6.50;;
15958;SDS011;8078;47.822;9.402;2023-06-26T11:38:56;6.75;;;6.15;;
15958;SDS011;8078;47.822;9.402;2023-06-26T11:41:26;7.18;;;6.30;;
15958;SDS011;8078;47.822;9.402;2023-06-26T11:43:53;7.45;;;6.68;;
15958;SDS011;8078;47.822;9.402;2023-06-26T11:46:20;8.48;;;5.75;;
15958;SDS011;8078;47.822;9.402;2023-06-26T11:48:47;9.88;;;6.63;;
15958;SDS011;8078;47.822;9.402;2023-06-26T11:51:13;8.02;;;6.55;;
15958;SDS011;8078;47.822;9.402;2023-06-26T11:53:42;8.32;;;6.35;;
15958;SDS011;8078;47.822;9.402;2023-06-26T11:56:16;7.68;;;6.13;;
15958;SDS011;8078;47.822;9.402;2023-06-26T12:01:42;7.65;;;5.78;;
15958;SDS011;8078;47.822;9.402;2023-06-26T12:04:10;7.82;;;6.25;;
15958;SDS011;8078;47.822;9.402;2023-06-26T12:06:37;7.03;;;6.32;;
15958;SDS011;8078;47.822;9.402;2023-06-26T12:09:06;7.28;;;5.88;;
15958;SDS011;8078;47.822;9.402;2023-06-26T12:11:42;7.35;;;6.50;;
15958;SDS011;8078;47.822;9.402;2023-06-26T12:14:10;6.70;;;5.97;;
15958;SDS011;8078;47.822;9.402;2023-06-26T12:16:36;7.93;;;6.05;;
15958;SDS011;8078;47.822;9.402;2023-06-26T12:19:04;7.65;;;6.03;;
15958;SDS011;8078;47.822;9.402;2023-06-26T12:24:03;7.68;;;6.22;;
15958;SDS011;8078;47.822;9.402;2023-06-26T12:26:30;6.85;;;6.15;;
15958;SDS011;8078;47.822;9.402;2023-06-26T12:29:08;7.57;;;6.72;;
15958;SDS011;8078;47.822;9.402;2023-06-26T12:31:39;7.07;;;6.32;;
15958;SDS011;8078;47.822;9.402;2023-06-26T12:34:14;6.40;;;5.65;;
15958;SDS011;8078;47.822;9.402;2023-06-26T12:36:47;7.53;;;6.75;;
15958;SDS011;8078;47.822;9.402;2023-06-26T12:39:15;8.05;;;6.50;;
15958;SDS011;8078;47.822;9.402;2023-06-26T12:41:49;6.97;;;6.20;;
15958;SDS011;8078;47.822;9.402;2023-06-26T12:44:24;6.72;;;6.03;;
15958;SDS011;8078;47.822;9.402;2023-06-26T12:46:56;11.82;;;6.90;;
15958;SDS011;8078;47.822;9.402;2023-06-26T12:49:29;7.85;;;6.38;;
15958;SDS011;8078;47.822;9.402;2023-06-26T12:51:59;9.77;;;6.47;;
15958;SDS011;8078;47.822;9.402;2023-06-26T12:54:26;8.07;;;6.40;;
15958;SDS011;8078;47.822;9.402;2023-06-26T12:56:52;8.82;;;6.07;;
15958;SDS011;8078;47.822;9.402;2023-06-26T12:59:18;8.73;;;6.45;;
15958;SDS011;8078;47.822;9.402;2023-06-26T13:01:44;9.63;;;6.05;;
15958;SDS011;8078;47.822;9.402;2023-06-26T13:04:09;7.65;;;6.10;;
15958;SDS011;8078;47.822;9.402;2023-06-26T13:06:35;9.93;;;6.53;;
15958;SDS011;8078;47.822;9.402;2023-06-26T13:09:01;7.40;;;6.20;;
15958;SDS011;8078;47.822;9.402;2023-06-26T13:11:30;7.68;;;6.63;;
15958;SDS011;8078;47.822;9.402;2023-06-26T13:13:56;9.23;;;6.88;;
15958;SDS011;8078;47.822;9.402;2023-06-26T13:16:22;9.50;;;6.60;;
15958;SDS011;8078;47.822;9.402;2023-06-26T13:18:47;10.05;;;6.80;;
15958;SDS011;8078;47.822;9.402;2023-06-26T13:21:14;10.25;;;6.90;;
15958;SDS011;8078;47.822;9.402;2023-06-26T13:23:40;7.75;;;6.95;;
15958;SDS011;8078;47.822;9.402;2023-06-26T13:26:06;7.93;;;6.25;;
15958;SDS011;8078;47.822;9.402;2023-06-26T13:28:31;14.82;;;6.88;;
15958;SDS011;8078;47.822;9.402;2023-06-26T13:30:57;9.55;;;6.97;;
15958;SDS011;8078;47.822;9.402;2023-06-26T13:33:23;9.02;;;6.00;;
15958;SDS011;8078;47.822;9.402;2023-06-26T13:35:51;9.18;;;6.68;;
15958;SDS011;8078;47.822;9.402;2023-06-26T13:38:18;7.15;;;6.43;;
15958;SDS011;8078;47.822;9.402;2023-06-26T13:40:44;7.57;;;6.53;;
15958;SDS011;8078;47.822;9.402;2023-06-26T13:43:10;8.40;;;6.55;;
15958;SDS011;8078;47.822;9.402;2023-06-26T13:45:36;11.45;;;6.35;;
15958;SDS011;8078;47.822;9.402;2023-06-26T13:48:02;9.57;;;6.40;;
15958;SDS011;8078;47.822;9.402;2023-06-26T13:50:28;8.38;;;6.05;;
15958;SDS011;8078;47.822;9.402;2023-06-26T13:52:54;8.00;;;6.43;;
15958;SDS011;8078;47.822;9.402;2023-06-26T13:55:20;10.23;;;7.28;;
15958;SDS011;8078;47.822;9.402;2023-06-26T13:57:47;8.40;;;7.18;;
15958;SDS011;8078;47.822;9.402;2023-06-26T14:00:14;8.27;;;6.38;;
15958;SDS011;8078;47.822;9.402;2023-06-26T14:02:44;9.43;;;7.30;;
15958;SDS011;8078;47.822;9.402;2023-06-26T14:05:10;7.00;;;6.30;;
15958;SDS011;8078;47.822;9.402;2023-06-26T14:07:36;8.18;;;6.63;;
15958;SDS011;8078;47.822;9.402;2023-06-26T14:10:03;10.48;;;6.78;;
15958;SDS011;8078;47.822;9.402;2023-06-26T14:12:30;7.63;;;6.63;;
15958;SDS011;8078;47.822;9.402;2023-06-26T14:14:55;8.70;;;7.60;;
15958;SDS011;8078;47.822;9.402;2023-06-26T14:17:21;9.18;;;6.90;;
15958;SDS011;8078;47.822;9.402;2023-06-26T14:19:49;10.82;;;7.15;;
15958;SDS011;8078;47.822;9.402;2023-06-26T14:22:15;7.55;;;6.75;;
15958;SDS011;8078;47.822;9.402;2023-06-26T14:24:40;11.35;;;7.15;;
15958;SDS011;8078;47.822;9.402;2023-06-26T14:27:06;7.80;;;7.00;;
15958;SDS011;8078;47.822;9.402;2023-06-26T14:29:31;8.48;;;7.57;;
15958;SDS011;8078;47.822;9.402;2023-06-26T14:31:57;8.32;;;7.40;;
15958;SDS011;8078;47.822;9.402;2023-06-26T14:34:23;9.57;;;6.75;;
15958;SDS011;8078;47.822;9.402;2023-06-26T14:36:48;8.32;;;7.32;;
15958;SDS011;8078;47.822;9.402;2023-06-26T14:39:14;11.00;;;7.43;;
15958;SDS011;8078;47.822;9.402;2023-06-26T14:41:39;10.20;;;7.47;;
15958;SDS011;8078;47.822;9.402;2023-06-26T14:44:05;9.50;;;8.05;;
15958;SDS011;8078;47.822;9.402;2023-06-26T14:46:33;10.15;;;7.65;;
15958;SDS011;8078;47.822;9.402;2023-06-26T14:48:59;12.27;;;7.97;;
15958;SDS011;8078;47.822;9.402;2023-06-26T14:51:24;9.45;;;7.15;;
15958;SDS011;8078;47.822;9.402;2023-06-26T14:53:51;12.02;;;7.18;;
15958;SDS011;8078;47.822;9.402;2023-06-26T14:56:16;11.25;;;7.47;;
15958;SDS011;8078;47.822;9.402;2023-06-26T14:58:42;8.05;;;7.00;;
15958;SDS011;8078;47.822;9.402;2023-06-26T15:01:07;8.10;;;7.30;;
15958;SDS011;8078;47.822;9.402;2023-06-26T15:03:34;13.27;;;7.32;;
15958;SDS011;8078;47.822;9.402;2023-06-26T15:05:59;9.30;;;7.95;;
15958;SDS011;8078;47.822;9.402;2023-06-26T15:08:25;8.05;;;7.00;;
15958;SDS011;8078;47.822;9.402;2023-06-26T15:10:50;8.43;;;7.28;;
15958;SDS011;8078;47.822;9.402;2023-06-26T15:13:16;9.43;;;6.88;;
15958;SDS011;8078;47.822;9.402;2023-06-26T15:15:41;8.13;;;6.97;;
15958;SDS011;8078;47.822;9.402;2023-06-26T15:18:07;9.70;;;6.82;;
15958;SDS011;8078;47.822;9.402;2023-06-26T15:20:32;8.20;;;6.75;;
15958;SDS011;8078;47.822;9.402;2023-06-26T15:22:58;7.78;;;6.70;;
15958;SDS011;8078;47.822;9.402;2023-06-26T15:25:24;7.85;;;6.60;;